sensor_id;sensor_type;location;lat;lon;timestamp;temperature;humidity
14924;DHT22;7554;43.600;1.480;2022-08-04T00:00:54;28.00;1.00
14924;DHT22;7554;43.600;1.480;2022-08-04T00:03:25;28.10;1.00
14924;DHT22;7554;43.600;1.480;2022-08-04T00:05:59;28.10;1.00
14924;DHT22;7554;43.600;1.480;2022-08-04T00:08:35;28.10;1.00
14924;DHT22;7554;43.600;1.480;2022-08-04T00:11:08;28.10;1.00
14924;DHT22;7554;43.600;1.480;2022-08-04T00:13:37;28.00;1.00
14924;DHT22;7554;43.600;1.480;2022-08-04T00:16:07;28.00;1.00
14924;DHT22;7554;43.600;1.480;2022-08-04T00:18:39;28.00;1.00
14924;DHT22;7554;43.600;1.480;2022-08-04T00:21:14;28.00;1.00
14924;DHT22;7554;43.600;1.480;2022-08-04T00:23:44;28.00;1.00
14924;DHT22;7554;43.600;1.480;2022-08-04T00:26:12;28.00;1.00
14924;DHT22;7554;43.600;1.480;2022-08-04T00:28:42;27.90;1.00
14924;DHT22;7554;43.600;1.480;2022-08-04T00:31:10;27.70;1.00
14924;DHT22;7554;43.600;1.480;2022-08-04T00:33:38;27.60;1.00
14924;DHT22;7554;43.600;1.480;2022-08-04T00:36:05;27.50;1.00
14924;DHT22;7554;43.600;1.480;2022-08-04T00:38:33;27.60;1.00
14924;DHT22;7554;43.600;1.480;2022-08-04T00:41:11;27.60;1.00
14924;DHT22;7554;43.600;1.480;2022-08-04T00:43:53;27.60;1.00
14924;DHT22;7554;43.600;1.480;2022-08-04T00:46:41;27.60;1.00
14924;DHT22;7554;43.600;1.480;2022-08-04T00:52:32;27.40;1.00
14924;DHT22;7554;43.600;1.480;2022-08-04T00:55:34;27.40;1.00
14924;DHT22;7554;43.600;1.480;2022-08-04T00:58:21;27.40;1.00
14924;DHT22;7554;43.600;1.480;2022-08-04T01:00:57;27.30;1.00
14924;DHT22;7554;43.600;1.480;2022-08-04T01:03:38;27.20;1.00
14924;DHT22;7554;43.600;1.480;2022-08-04T01:06:15;27.10;1.00
14924;DHT22;7554;43.600;1.480;2022-08-04T01:08:51;27.10;1.00
14924;DHT22;7554;43.600;1.480;2022-08-04T01:11:33;27.20;1.00
14924;DHT22;7554;43.600;1.480;2022-08-04T01:14:34;27.20;1.00
14924;DHT22;7554;43.600;1.480;2022-08-04T01:17:16;27.10;1.00
14924;DHT22;7554;43.600;1.480;2022-08-04T01:20:00;27.00;1.00
14924;DHT22;7554;43.600;1.480;2022-08-04T01:23:07;27.10;1.00
14924;DHT22;7554;43.600;1.480;2022-08-04T01:28:54;27.00;1.00
14924;DHT22;7554;43.600;1.480;2022-08-04T01:31:28;27.00;1.00
14924;DHT22;7554;43.600;1.480;2022-08-04T01:34:03;27.00;1.00
14924;DHT22;7554;43.600;1.480;2022-08-04T01:36:33;27.00;1.00
14924;DHT22;7554;43.600;1.480;2022-08-04T01:39:01;26.90;1.00
14924;DHT22;7554;43.600;1.480;2022-08-04T01:41:51;27.00;1.00
14924;DHT22;7554;43.600;1.480;2022-08-04T01:44:20;27.00;1.00
14924;DHT22;7554;43.600;1.480;2022-08-04T01:46:50;26.90;1.00
14924;DHT22;7554;43.600;1.480;2022-08-04T01:49:20;26.90;1.00
14924;DHT22;7554;43.600;1.480;2022-08-04T01:51:49;26.80;1.00
14924;DHT22;7554;43.600;1.480;2022-08-04T01:54:17;26.80;1.00
14924;DHT22;7554;43.600;1.480;2022-08-04T01:56:46;26.80;1.00
14924;DHT22;7554;43.600;1.480;2022-08-04T01:59:18;26.80;1.00
14924;DHT22;7554;43.600;1.480;2022-08-04T02:01:47;26.70;1.00
14924;DHT22;7554;43.600;1.480;2022-08-04T02:04:16;26.70;1.00
14924;DHT22;7554;43.600;1.480;2022-08-04T02:06:51;26.70;1.00
14924;DHT22;7554;43.600;1.480;2022-08-04T02:09:29;26.80;1.00
14924;DHT22;7554;43.600;1.480;2022-08-04T02:12:03;26.70;1.00
14924;DHT22;7554;43.600;1.480;2022-08-04T02:14:44;26.70;1.00
14924;DHT22;7554;43.600;1.480;2022-08-04T02:17:27;26.60;1.00
14924;DHT22;7554;43.600;1.480;2022-08-04T02:20:03;26.60;1.00
14924;DHT22;7554;43.600;1.480;2022-08-04T02:22:33;26.60;1.00
14924;DHT22;7554;43.600;1.480;2022-08-04T02:25:05;26.60;1.00
14924;DHT22;7554;43.600;1.480;2022-08-04T02:27:53;26.50;1.00
14924;DHT22;7554;43.600;1.480;2022-08-04T02:30:39;26.50;1.00
14924;DHT22;7554;43.600;1.480;2022-08-04T02:33:12;26.50;1.00
14924;DHT22;7554;43.600;1.480;2022-08-04T02:35:44;26.40;1.00
14924;DHT22;7554;43.600;1.480;2022-08-04T02:38:30;26.40;1.00
14924;DHT22;7554;43.600;1.480;2022-08-04T02:40:59;26.40;1.00
14924;DHT22;7554;43.600;1.480;2022-08-04T02:43:28;26.30;1.00
14924;DHT22;7554;43.600;1.480;2022-08-04T02:45:58;26.30;1.00
14924;DHT22;7554;43.600;1.480;2022-08-04T02:48:29;26.30;1.00
14924;DHT22;7554;43.600;1.480;2022-08-04T02:50:58;26.30;1.00
14924;DHT22;7554;43.600;1.480;2022-08-04T02:53:27;26.30;1.00
14924;DHT22;7554;43.600;1.480;2022-08-04T02:55:57;26.30;1.00
14924;DHT22;7554;43.600;1.480;2022-08-04T02:58:30;26.20;1.00
14924;DHT22;7554;43.600;1.480;2022-08-04T03:01:00;26.20;1.00
14924;DHT22;7554;43.600;1.480;2022-08-04T03:03:35;26.10;1.00
14924;DHT22;7554;43.600;1.480;2022-08-04T03:12:47;26.10;1.00
14924;DHT22;7554;43.600;1.480;2022-08-04T03:16:02;26.00;1.00
14924;DHT22;7554;43.600;1.480;2022-08-04T03:19:08;26.00;1.00
14924;DHT22;7554;43.600;1.480;2022-08-04T03:22:08;25.90;1.00
14924;DHT22;7554;43.600;1.480;2022-08-04T03:28:07;25.90;1.00
14924;DHT22;7554;43.600;1.480;2022-08-04T03:31:00;25.80;1.00
14924;DHT22;7554;43.600;1.480;2022-08-04T03:34:00;25.80;1.00
14924;DHT22;7554;43.600;1.480;2022-08-04T03:36:57;25.80;1.00
14924;DHT22;7554;43.600;1.480;2022-08-04T03:40:18;25.70;1.00
14924;DHT22;7554;43.600;1.480;2022-08-04T03:43:13;25.70;1.00
14924;DHT22;7554;43.600;1.480;2022-08-04T03:46:13;25.60;1.00
14924;DHT22;7554;43.600;1.480;2022-08-04T03:49:01;25.60;1.00
14924;DHT22;7554;43.600;1.480;2022-08-04T03:51:42;25.60;1.00
14924;DHT22;7554;43.600;1.480;2022-08-04T03:54:57;25.60;1.00
14924;DHT22;7554;43.600;1.480;2022-08-04T03:57:55;25.60;1.00
14924;DHT22;7554;43.600;1.480;2022-08-04T04:00:32;25.50;1.00
14924;DHT22;7554;43.600;1.480;2022-08-04T04:03:39;25.50;1.00
14924;DHT22;7554;43.600;1.480;2022-08-04T04:06:40;25.50;1.00
14924;DHT22;7554;43.600;1.480;2022-08-04T04:09:39;25.40;1.00
14924;DHT22;7554;43.600;1.480;2022-08-04T04:15:22;25.30;1.00
14924;DHT22;7554;43.600;1.480;2022-08-04T04:18:15;25.40;1.00
14924;DHT22;7554;43.600;1.480;2022-08-04T04:24:36;25.20;1.00
14924;DHT22;7554;43.600;1.480;2022-08-04T04:27:14;25.10;1.00
14924;DHT22;7554;43.600;1.480;2022-08-04T04:33:04;24.90;1.00
14924;DHT22;7554;43.600;1.480;2022-08-04T04:35:44;25.00;1.00
14924;DHT22;7554;43.600;1.480;2022-08-04T04:38:30;24.90;1.00
14924;DHT22;7554;43.600;1.480;2022-08-04T04:44:36;25.00;1.00
14924;DHT22;7554;43.600;1.480;2022-08-04T04:47:13;24.90;1.00
14924;DHT22;7554;43.600;1.480;2022-08-04T04:49:50;24.90;1.00
14924;DHT22;7554;43.600;1.480;2022-08-04T04:52:32;24.90;1.00
14924;DHT22;7554;43.600;1.480;2022-08-04T04:55:09;24.90;1.00
14924;DHT22;7554;43.600;1.480;2022-08-04T04:57:41;25.00;1.00
14924;DHT22;7554;43.600;1.480;2022-08-04T05:00:10;25.10;1.00
14924;DHT22;7554;43.600;1.480;2022-08-04T05:09:00;25.60;1.00
14924;DHT22;7554;43.600;1.480;2022-08-04T05:14:46;26.20;1.00
14924;DHT22;7554;43.600;1.480;2022-08-04T05:17:19;26.60;1.00
14924;DHT22;7554;43.600;1.480;2022-08-04T05:19:54;27.00;1.00
14924;DHT22;7554;43.600;1.480;2022-08-04T05:22:27;27.30;1.00
14924;DHT22;7554;43.600;1.480;2022-08-04T05:25:02;27.30;1.00
14924;DHT22;7554;43.600;1.480;2022-08-04T05:27:34;27.00;1.00
14924;DHT22;7554;43.600;1.480;2022-08-04T05:30:06;27.20;1.00
14924;DHT22;7554;43.600;1.480;2022-08-04T05:32:47;27.90;1.00
14924;DHT22;7554;43.600;1.480;2022-08-04T05:35:21;28.50;1.00
14924;DHT22;7554;43.600;1.480;2022-08-04T05:37:52;29.10;1.00
14924;DHT22;7554;43.600;1.480;2022-08-04T05:40:21;29.50;1.00
14924;DHT22;7554;43.600;1.480;2022-08-04T05:42:50;30.00;1.00
14924;DHT22;7554;43.600;1.480;2022-08-04T05:45:20;30.50;1.00
14924;DHT22;7554;43.600;1.480;2022-08-04T05:47:49;30.80;1.00
14924;DHT22;7554;43.600;1.480;2022-08-04T05:50:18;31.20;1.00
14924;DHT22;7554;43.600;1.480;2022-08-04T05:52:46;31.40;1.00
14924;DHT22;7554;43.600;1.480;2022-08-04T05:55:15;31.90;1.00
14924;DHT22;7554;43.600;1.480;2022-08-04T05:57:44;32.10;1.00
14924;DHT22;7554;43.600;1.480;2022-08-04T06:00:15;32.40;1.00
14924;DHT22;7554;43.600;1.480;2022-08-04T06:02:46;32.80;1.00
14924;DHT22;7554;43.600;1.480;2022-08-04T06:05:14;33.20;1.00
14924;DHT22;7554;43.600;1.480;2022-08-04T06:07:44;33.30;1.00
14924;DHT22;7554;43.600;1.480;2022-08-04T06:10:11;33.60;1.00
14924;DHT22;7554;43.600;1.480;2022-08-04T06:12:43;33.80;1.00
14924;DHT22;7554;43.600;1.480;2022-08-04T06:15:17;34.30;1.00
14924;DHT22;7554;43.600;1.480;2022-08-04T06:17:48;34.80;1.00
14924;DHT22;7554;43.600;1.480;2022-08-04T06:20:17;35.00;1.00
14924;DHT22;7554;43.600;1.480;2022-08-04T06:22:48;35.50;1.00
14924;DHT22;7554;43.600;1.480;2022-08-04T06:25:19;35.80;1.00
14924;DHT22;7554;43.600;1.480;2022-08-04T06:27:49;35.80;1.00
14924;DHT22;7554;43.600;1.480;2022-08-04T06:30:17;36.20;1.00
14924;DHT22;7554;43.600;1.480;2022-08-04T06:32:48;36.10;1.00
14924;DHT22;7554;43.600;1.480;2022-08-04T06:35:21;36.80;1.00
14924;DHT22;7554;43.600;1.480;2022-08-04T06:37:50;37.10;1.00
14924;DHT22;7554;43.600;1.480;2022-08-04T06:40:20;37.10;1.00
14924;DHT22;7554;43.600;1.480;2022-08-04T06:42:51;37.70;1.00
14924;DHT22;7554;43.600;1.480;2022-08-04T06:45:19;38.10;1.00
14924;DHT22;7554;43.600;1.480;2022-08-04T06:47:48;38.30;1.00
14924;DHT22;7554;43.600;1.480;2022-08-04T06:50:16;38.40;1.00
14924;DHT22;7554;43.600;1.480;2022-08-04T06:52:44;38.50;1.00
14924;DHT22;7554;43.600;1.480;2022-08-04T06:55:12;38.50;1.00
14924;DHT22;7554;43.600;1.480;2022-08-04T06:57:40;39.10;1.00
14924;DHT22;7554;43.600;1.480;2022-08-04T07:00:10;39.40;1.00
14924;DHT22;7554;43.600;1.480;2022-08-04T07:02:42;39.80;1.00
14924;DHT22;7554;43.600;1.480;2022-08-04T07:05:13;39.90;1.00
14924;DHT22;7554;43.600;1.480;2022-08-04T07:07:41;40.30;1.00
14924;DHT22;7554;43.600;1.480;2022-08-04T07:10:10;39.90;1.00
14924;DHT22;7554;43.600;1.480;2022-08-04T07:12:38;40.20;1.00
14924;DHT22;7554;43.600;1.480;2022-08-04T07:15:07;40.00;1.00
14924;DHT22;7554;43.600;1.480;2022-08-04T07:17:35;39.70;1.00
14924;DHT22;7554;43.600;1.480;2022-08-04T07:20:05;40.60;1.00
14924;DHT22;7554;43.600;1.480;2022-08-04T07:22:34;41.30;1.00
14924;DHT22;7554;43.600;1.480;2022-08-04T07:25:07;41.20;1.00
14924;DHT22;7554;43.600;1.480;2022-08-04T07:27:34;42.00;1.00
14924;DHT22;7554;43.600;1.480;2022-08-04T07:30:04;42.40;1.00
14924;DHT22;7554;43.600;1.480;2022-08-04T07:32:32;42.20;1.00
14924;DHT22;7554;43.600;1.480;2022-08-04T07:35:01;42.60;1.00
14924;DHT22;7554;43.600;1.480;2022-08-04T07:37:28;40.70;1.00
14924;DHT22;7554;43.600;1.480;2022-08-04T07:39:57;41.70;1.00
14924;DHT22;7554;43.600;1.480;2022-08-04T07:42:25;41.50;1.00
14924;DHT22;7554;43.600;1.480;2022-08-04T07:44:52;43.10;1.00
14924;DHT22;7554;43.600;1.480;2022-08-04T07:47:20;42.50;1.00
14924;DHT22;7554;43.600;1.480;2022-08-04T07:49:47;41.00;1.00
14924;DHT22;7554;43.600;1.480;2022-08-04T07:52:15;40.00;1.00
14924;DHT22;7554;43.600;1.480;2022-08-04T07:54:43;39.00;1.00
14924;DHT22;7554;43.600;1.480;2022-08-04T07:57:12;40.00;1.00
14924;DHT22;7554;43.600;1.480;2022-08-04T07:59:41;42.50;1.00
14924;DHT22;7554;43.600;1.480;2022-08-04T08:02:09;42.50;1.00
14924;DHT22;7554;43.600;1.480;2022-08-04T08:04:38;39.80;1.00
14924;DHT22;7554;43.600;1.480;2022-08-04T08:07:06;38.60;1.00
14924;DHT22;7554;43.600;1.480;2022-08-04T08:09:33;39.50;1.00
14924;DHT22;7554;43.600;1.480;2022-08-04T08:12:01;40.70;1.00
14924;DHT22;7554;43.600;1.480;2022-08-04T08:14:30;43.40;1.00
14924;DHT22;7554;43.600;1.480;2022-08-04T08:17:00;43.10;1.00
14924;DHT22;7554;43.600;1.480;2022-08-04T08:19:27;42.50;1.00
14924;DHT22;7554;43.600;1.480;2022-08-04T08:21:55;43.00;1.00
14924;DHT22;7554;43.600;1.480;2022-08-04T08:24:23;43.20;1.00
14924;DHT22;7554;43.600;1.480;2022-08-04T08:26:50;43.30;1.00
14924;DHT22;7554;43.600;1.480;2022-08-04T08:29:18;43.50;1.00
14924;DHT22;7554;43.600;1.480;2022-08-04T08:31:47;44.10;1.00
14924;DHT22;7554;43.600;1.480;2022-08-04T08:34:15;44.90;1.00
14924;DHT22;7554;43.600;1.480;2022-08-04T08:36:45;43.80;1.00
14924;DHT22;7554;43.600;1.480;2022-08-04T08:39:20;42.30;1.00
14924;DHT22;7554;43.600;1.480;2022-08-04T08:42:30;44.40;1.00
14924;DHT22;7554;43.600;1.480;2022-08-04T08:45:30;45.50;1.00
14924;DHT22;7554;43.600;1.480;2022-08-04T08:48:23;45.90;1.00
14924;DHT22;7554;43.600;1.480;2022-08-04T08:51:15;46.10;1.00
14924;DHT22;7554;43.600;1.480;2022-08-04T08:54:10;46.00;1.00
14924;DHT22;7554;43.600;1.480;2022-08-04T08:56:52;46.00;1.00
14924;DHT22;7554;43.600;1.480;2022-08-04T08:59:46;44.80;1.00
14924;DHT22;7554;43.600;1.480;2022-08-04T09:06:03;45.40;1.00
14924;DHT22;7554;43.600;1.480;2022-08-04T09:08:58;44.70;1.00
14924;DHT22;7554;43.600;1.480;2022-08-04T09:11:33;45.80;1.00
14924;DHT22;7554;43.600;1.480;2022-08-04T09:14:09;43.00;1.00
14924;DHT22;7554;43.600;1.480;2022-08-04T09:16:44;43.80;1.00
14924;DHT22;7554;43.600;1.480;2022-08-04T09:19:18;43.70;1.00
14924;DHT22;7554;43.600;1.480;2022-08-04T09:21:56;43.50;1.00
14924;DHT22;7554;43.600;1.480;2022-08-04T09:24:30;42.60;1.00
14924;DHT22;7554;43.600;1.480;2022-08-04T09:27:08;43.90;1.00
14924;DHT22;7554;43.600;1.480;2022-08-04T09:29:42;39.80;1.00
14924;DHT22;7554;43.600;1.480;2022-08-04T09:32:23;40.60;1.00
14924;DHT22;7554;43.600;1.480;2022-08-04T09:35:05;41.30;1.00
14924;DHT22;7554;43.600;1.480;2022-08-04T09:37:42;41.70;1.00
14924;DHT22;7554;43.600;1.480;2022-08-04T09:40:19;42.80;1.00
14924;DHT22;7554;43.600;1.480;2022-08-04T09:42:55;41.70;1.00
14924;DHT22;7554;43.600;1.480;2022-08-04T09:45:30;41.70;1.00
14924;DHT22;7554;43.600;1.480;2022-08-04T09:48:04;41.20;1.00
14924;DHT22;7554;43.600;1.480;2022-08-04T09:50:36;38.40;1.00
14924;DHT22;7554;43.600;1.480;2022-08-04T09:53:29;37.20;1.00
14924;DHT22;7554;43.600;1.480;2022-08-04T09:56:08;35.90;1.00
14924;DHT22;7554;43.600;1.480;2022-08-04T09:58:48;34.20;1.00
14924;DHT22;7554;43.600;1.480;2022-08-04T10:01:18;33.10;1.00
14924;DHT22;7554;43.600;1.480;2022-08-04T10:03:50;33.50;1.00
14924;DHT22;7554;43.600;1.480;2022-08-04T10:06:35;33.30;1.00
14924;DHT22;7554;43.600;1.480;2022-08-04T10:09:19;33.20;1.00
14924;DHT22;7554;43.600;1.480;2022-08-04T10:11:59;33.00;1.00
14924;DHT22;7554;43.600;1.480;2022-08-04T10:14:39;33.60;1.00
14924;DHT22;7554;43.600;1.480;2022-08-04T10:17:20;33.60;1.00
14924;DHT22;7554;43.600;1.480;2022-08-04T10:19:58;33.00;1.00
14924;DHT22;7554;43.600;1.480;2022-08-04T10:22:32;32.90;1.00
14924;DHT22;7554;43.600;1.480;2022-08-04T10:25:14;33.10;1.00
14924;DHT22;7554;43.600;1.480;2022-08-04T10:27:47;33.60;1.00
14924;DHT22;7554;43.600;1.480;2022-08-04T10:30:18;34.10;1.00
14924;DHT22;7554;43.600;1.480;2022-08-04T10:32:51;34.50;1.00
14924;DHT22;7554;43.600;1.480;2022-08-04T10:35:21;34.10;1.00
14924;DHT22;7554;43.600;1.480;2022-08-04T10:38:00;34.40;1.00
14924;DHT22;7554;43.600;1.480;2022-08-04T10:40:35;33.40;1.00
14924;DHT22;7554;43.600;1.480;2022-08-04T10:43:21;32.30;1.00
14924;DHT22;7554;43.600;1.480;2022-08-04T10:45:55;33.10;1.00
14924;DHT22;7554;43.600;1.480;2022-08-04T10:48:34;32.70;1.00
14924;DHT22;7554;43.600;1.480;2022-08-04T10:51:14;32.60;1.00
14924;DHT22;7554;43.600;1.480;2022-08-04T10:53:46;33.00;1.00
14924;DHT22;7554;43.600;1.480;2022-08-04T10:56:21;33.10;1.00
14924;DHT22;7554;43.600;1.480;2022-08-04T10:58:53;33.30;1.00
14924;DHT22;7554;43.600;1.480;2022-08-04T11:01:28;33.70;1.00
14924;DHT22;7554;43.600;1.480;2022-08-04T11:04:00;32.90;1.00
14924;DHT22;7554;43.600;1.480;2022-08-04T11:06:32;33.00;1.00
14924;DHT22;7554;43.600;1.480;2022-08-04T11:09:03;32.70;1.00
14924;DHT22;7554;43.600;1.480;2022-08-04T11:11:42;33.60;1.00
14924;DHT22;7554;43.600;1.480;2022-08-04T11:14:12;34.00;1.00
14924;DHT22;7554;43.600;1.480;2022-08-04T11:16:43;33.50;1.00
14924;DHT22;7554;43.600;1.480;2022-08-04T11:19:24;33.30;1.00
14924;DHT22;7554;43.600;1.480;2022-08-04T11:21:59;34.00;1.00
14924;DHT22;7554;43.600;1.480;2022-08-04T11:24:38;32.50;1.00
14924;DHT22;7554;43.600;1.480;2022-08-04T11:27:13;32.50;1.00
14924;DHT22;7554;43.600;1.480;2022-08-04T11:29:50;32.40;1.00
14924;DHT22;7554;43.600;1.480;2022-08-04T11:32:30;33.00;1.00
14924;DHT22;7554;43.600;1.480;2022-08-04T11:35:01;33.00;1.00
14924;DHT22;7554;43.600;1.480;2022-08-04T11:37:40;32.20;1.00
14924;DHT22;7554;43.600;1.480;2022-08-04T11:40:15;32.60;1.00
14924;DHT22;7554;43.600;1.480;2022-08-04T11:42:54;33.30;1.00
14924;DHT22;7554;43.600;1.480;2022-08-04T11:45:27;32.60;1.00
14924;DHT22;7554;43.600;1.480;2022-08-04T11:47:59;32.80;1.00
14924;DHT22;7554;43.600;1.480;2022-08-04T11:50:32;32.50;1.00
14924;DHT22;7554;43.600;1.480;2022-08-04T11:53:03;32.80;1.00
14924;DHT22;7554;43.600;1.480;2022-08-04T11:55:32;32.60;1.00
14924;DHT22;7554;43.600;1.480;2022-08-04T11:58:02;32.80;1.00
14924;DHT22;7554;43.600;1.480;2022-08-04T12:00:32;33.50;1.00
14924;DHT22;7554;43.600;1.480;2022-08-04T12:03:18;33.60;1.00
14924;DHT22;7554;43.600;1.480;2022-08-04T12:05:53;33.90;1.00
14924;DHT22;7554;43.600;1.480;2022-08-04T12:08:39;33.60;1.00
14924;DHT22;7554;43.600;1.480;2022-08-04T12:11:19;33.40;1.00
14924;DHT22;7554;43.600;1.480;2022-08-04T12:13:56;33.50;1.00
14924;DHT22;7554;43.600;1.480;2022-08-04T12:16:31;33.30;1.00
14924;DHT22;7554;43.600;1.480;2022-08-04T12:19:07;33.60;1.00
14924;DHT22;7554;43.600;1.480;2022-08-04T12:21:41;33.70;1.00
14924;DHT22;7554;43.600;1.480;2022-08-04T12:24:17;33.00;1.00
14924;DHT22;7554;43.600;1.480;2022-08-04T12:26:51;33.10;1.00
14924;DHT22;7554;43.600;1.480;2022-08-04T12:29:22;33.20;1.00
14924;DHT22;7554;43.600;1.480;2022-08-04T12:31:52;33.70;1.00
14924;DHT22;7554;43.600;1.480;2022-08-04T12:34:26;33.10;1.00
14924;DHT22;7554;43.600;1.480;2022-08-04T12:37:01;32.90;1.00
14924;DHT22;7554;43.600;1.480;2022-08-04T12:39:29;33.20;1.00
14924;DHT22;7554;43.600;1.480;2022-08-04T12:42:02;33.70;1.00
14924;DHT22;7554;43.600;1.480;2022-08-04T12:44:33;33.70;1.00
14924;DHT22;7554;43.600;1.480;2022-08-04T12:47:03;33.40;1.00
14924;DHT22;7554;43.600;1.480;2022-08-04T12:49:33;33.30;1.00
14924;DHT22;7554;43.600;1.480;2022-08-04T12:52:04;33.20;1.00
14924;DHT22;7554;43.600;1.480;2022-08-04T12:54:34;33.20;1.00
14924;DHT22;7554;43.600;1.480;2022-08-04T12:57:05;33.40;1.00
14924;DHT22;7554;43.600;1.480;2022-08-04T12:59:38;33.30;1.00
14924;DHT22;7554;43.600;1.480;2022-08-04T13:02:12;33.10;1.00
14924;DHT22;7554;43.600;1.480;2022-08-04T13:04:42;33.00;1.00
14924;DHT22;7554;43.600;1.480;2022-08-04T13:07:13;33.10;1.00
14924;DHT22;7554;43.600;1.480;2022-08-04T13:09:41;33.40;1.00
14924;DHT22;7554;43.600;1.480;2022-08-04T13:12:13;33.20;1.00
14924;DHT22;7554;43.600;1.480;2022-08-04T13:14:42;33.20;1.00
14924;DHT22;7554;43.600;1.480;2022-08-04T13:17:11;33.40;1.00
14924;DHT22;7554;43.600;1.480;2022-08-04T13:19:40;33.50;1.00
14924;DHT22;7554;43.600;1.480;2022-08-04T13:22:12;33.60;1.00
14924;DHT22;7554;43.600;1.480;2022-08-04T13:24:41;33.70;1.00
14924;DHT22;7554;43.600;1.480;2022-08-04T13:27:11;33.80;1.00
14924;DHT22;7554;43.600;1.480;2022-08-04T13:29:41;33.70;1.00
14924;DHT22;7554;43.600;1.480;2022-08-04T13:32:10;33.70;1.00
14924;DHT22;7554;43.600;1.480;2022-08-04T13:34:42;33.80;1.00
14924;DHT22;7554;43.600;1.480;2022-08-04T13:37:13;33.90;1.00
14924;DHT22;7554;43.600;1.480;2022-08-04T13:39:43;34.10;1.00
14924;DHT22;7554;43.600;1.480;2022-08-04T13:42:12;34.20;1.00
14924;DHT22;7554;43.600;1.480;2022-08-04T13:44:47;34.40;1.00
14924;DHT22;7554;43.600;1.480;2022-08-04T13:47:19;34.40;1.00
14924;DHT22;7554;43.600;1.480;2022-08-04T13:50:19;34.40;1.00
14924;DHT22;7554;43.600;1.480;2022-08-04T13:52:52;34.30;1.00
14924;DHT22;7554;43.600;1.480;2022-08-04T13:55:22;34.10;1.00
14924;DHT22;7554;43.600;1.480;2022-08-04T13:57:55;34.00;1.00
14924;DHT22;7554;43.600;1.480;2022-08-04T14:00:26;34.10;1.00
14924;DHT22;7554;43.600;1.480;2022-08-04T14:03:06;34.00;1.00
14924;DHT22;7554;43.600;1.480;2022-08-04T14:05:34;34.30;1.00
14924;DHT22;7554;43.600;1.480;2022-08-04T14:08:06;34.40;1.00
14924;DHT22;7554;43.600;1.480;2022-08-04T14:10:35;34.20;1.00
14924;DHT22;7554;43.600;1.480;2022-08-04T14:13:04;34.40;1.00
14924;DHT22;7554;43.600;1.480;2022-08-04T14:15:36;34.40;1.00
14924;DHT22;7554;43.600;1.480;2022-08-04T14:18:18;34.50;1.00
14924;DHT22;7554;43.600;1.480;2022-08-04T14:21:03;34.30;1.00
14924;DHT22;7554;43.600;1.480;2022-08-04T14:23:42;34.40;1.00
14924;DHT22;7554;43.600;1.480;2022-08-04T14:26:18;34.30;1.00
14924;DHT22;7554;43.600;1.480;2022-08-04T14:28:46;34.30;1.00
14924;DHT22;7554;43.600;1.480;2022-08-04T14:31:17;34.40;1.00
14924;DHT22;7554;43.600;1.480;2022-08-04T14:33:46;34.50;1.00
14924;DHT22;7554;43.600;1.480;2022-08-04T14:36:14;34.60;1.00
14924;DHT22;7554;43.600;1.480;2022-08-04T14:38:48;34.70;1.00
14924;DHT22;7554;43.600;1.480;2022-08-04T14:41:17;34.70;1.00
14924;DHT22;7554;43.600;1.480;2022-08-04T14:43:47;35.00;1.00
14924;DHT22;7554;43.600;1.480;2022-08-04T14:46:16;35.10;1.00
14924;DHT22;7554;43.600;1.480;2022-08-04T14:49:01;35.50;1.00
14924;DHT22;7554;43.600;1.480;2022-08-04T14:51:34;35.60;1.00
14924;DHT22;7554;43.600;1.480;2022-08-04T14:54:02;35.70;1.00
14924;DHT22;7554;43.600;1.480;2022-08-04T14:56:31;35.70;1.00
14924;DHT22;7554;43.600;1.480;2022-08-04T14:59:04;35.80;1.00
14924;DHT22;7554;43.600;1.480;2022-08-04T15:01:35;35.70;1.00
14924;DHT22;7554;43.600;1.480;2022-08-04T15:04:04;35.70;1.00
14924;DHT22;7554;43.600;1.480;2022-08-04T15:06:33;35.80;1.00
14924;DHT22;7554;43.600;1.480;2022-08-04T15:09:05;35.50;1.00
14924;DHT22;7554;43.600;1.480;2022-08-04T15:11:33;35.60;1.00
14924;DHT22;7554;43.600;1.480;2022-08-04T15:14:01;35.90;1.00
14924;DHT22;7554;43.600;1.480;2022-08-04T15:16:29;36.10;1.00
14924;DHT22;7554;43.600;1.480;2022-08-04T15:18:59;36.20;1.00
14924;DHT22;7554;43.600;1.480;2022-08-04T15:21:27;36.10;1.00
14924;DHT22;7554;43.600;1.480;2022-08-04T15:23:55;36.10;1.00
14924;DHT22;7554;43.600;1.480;2022-08-04T15:26:28;35.90;1.00
14924;DHT22;7554;43.600;1.480;2022-08-04T15:29:01;35.80;1.00
14924;DHT22;7554;43.600;1.480;2022-08-04T15:31:35;36.10;1.00
14924;DHT22;7554;43.600;1.480;2022-08-04T15:34:06;36.00;1.00
14924;DHT22;7554;43.600;1.480;2022-08-04T15:36:39;35.80;1.00
14924;DHT22;7554;43.600;1.480;2022-08-04T15:39:21;35.50;1.00
14924;DHT22;7554;43.600;1.480;2022-08-04T15:41:57;35.70;1.00
14924;DHT22;7554;43.600;1.480;2022-08-04T15:45:03;35.80;1.00
14924;DHT22;7554;43.600;1.480;2022-08-04T15:47:38;35.60;1.00
14924;DHT22;7554;43.600;1.480;2022-08-04T15:50:09;36.00;1.00
14924;DHT22;7554;43.600;1.480;2022-08-04T15:53:00;36.00;1.00
14924;DHT22;7554;43.600;1.480;2022-08-04T15:55:32;35.80;1.00
14924;DHT22;7554;43.600;1.480;2022-08-04T15:58:01;35.40;1.00
14924;DHT22;7554;43.600;1.480;2022-08-04T16:03:41;35.20;1.00
14924;DHT22;7554;43.600;1.480;2022-08-04T16:09:37;35.40;1.00
14924;DHT22;7554;43.600;1.480;2022-08-04T16:12:04;35.60;1.00
14924;DHT22;7554;43.600;1.480;2022-08-04T16:14:33;35.50;1.00
14924;DHT22;7554;43.600;1.480;2022-08-04T16:17:15;35.20;1.00
14924;DHT22;7554;43.600;1.480;2022-08-04T16:19:56;35.10;1.00
14924;DHT22;7554;43.600;1.480;2022-08-04T16:22:34;35.10;1.00
14924;DHT22;7554;43.600;1.480;2022-08-04T16:25:05;35.10;1.00
14924;DHT22;7554;43.600;1.480;2022-08-04T16:27:40;35.00;1.00
14924;DHT22;7554;43.600;1.480;2022-08-04T16:30:10;35.00;1.00
14924;DHT22;7554;43.600;1.480;2022-08-04T16:32:44;35.20;1.00
14924;DHT22;7554;43.600;1.480;2022-08-04T16:35:22;35.30;1.00
14924;DHT22;7554;43.600;1.480;2022-08-04T16:37:53;35.30;1.00
14924;DHT22;7554;43.600;1.480;2022-08-04T16:40:31;35.30;1.00
14924;DHT22;7554;43.600;1.480;2022-08-04T16:43:01;35.00;1.00
14924;DHT22;7554;43.600;1.480;2022-08-04T16:45:54;34.80;1.00
14924;DHT22;7554;43.600;1.480;2022-08-04T16:48:25;34.70;1.00
14924;DHT22;7554;43.600;1.480;2022-08-04T16:50:57;34.60;1.00
14924;DHT22;7554;43.600;1.480;2022-08-04T16:53:26;34.50;1.00
14924;DHT22;7554;43.600;1.480;2022-08-04T16:55:56;34.20;1.00
14924;DHT22;7554;43.600;1.480;2022-08-04T16:58:26;34.30;1.00
14924;DHT22;7554;43.600;1.480;2022-08-04T17:00:53;34.40;1.00
14924;DHT22;7554;43.600;1.480;2022-08-04T17:03:21;34.20;1.00
14924;DHT22;7554;43.600;1.480;2022-08-04T17:05:49;34.30;1.00
14924;DHT22;7554;43.600;1.480;2022-08-04T17:08:16;34.30;1.00
14924;DHT22;7554;43.600;1.480;2022-08-04T17:10:47;34.30;1.00
14924;DHT22;7554;43.600;1.480;2022-08-04T17:13:37;34.10;1.00
14924;DHT22;7554;43.600;1.480;2022-08-04T17:16:06;34.00;1.00
14924;DHT22;7554;43.600;1.480;2022-08-04T17:18:35;33.50;1.00
14924;DHT22;7554;43.600;1.480;2022-08-04T17:21:05;33.60;1.00
14924;DHT22;7554;43.600;1.480;2022-08-04T17:23:36;33.70;1.00
14924;DHT22;7554;43.600;1.480;2022-08-04T17:26:07;33.50;1.00
14924;DHT22;7554;43.600;1.480;2022-08-04T17:28:36;33.40;1.00
14924;DHT22;7554;43.600;1.480;2022-08-04T17:31:06;33.40;1.00
14924;DHT22;7554;43.600;1.480;2022-08-04T17:33:35;33.20;1.00
14924;DHT22;7554;43.600;1.480;2022-08-04T17:36:04;33.00;1.00
14924;DHT22;7554;43.600;1.480;2022-08-04T17:38:36;32.90;1.00
14924;DHT22;7554;43.600;1.480;2022-08-04T17:41:05;32.80;1.00